Time;durP1;ratioP1;P1;durP2;ratioP2;P2;SDS_P1;SDS_P2;PMS_P1;PMS_P2;Temp;Humidity;BMP_temperature;BMP_pressure;BME280_temperature;BME280_humidity;BME280_pressure;Samples;Min_cycle;Max_cycle;Signal;HPM_P1;HPM_P2
2023/04/03 00:01:28;;;;;;;1.47;1.37;;;10.10;99.90;;;;;;5017447;28;20977;-50
2023/04/03 00:03:56;;;;;;;3.20;1.40;;;10.10;99.90;;;;;;5007758;28;20559;-49
2023/04/03 00:06:26;;;;;;;2.50;1.70;;;10.10;99.90;;;;;;5009974;28;20502;-48
2023/04/03 00:08:54;;;;;;;1.30;1.20;;;10.10;99.90;;;;;;5006027;28;20954;-48
2023/04/03 00:11:23;;;;;;;1.30;1.20;;;10.00;99.90;;;;;;5004035;28;20787;-46
2023/04/03 00:13:52;;;;;;;2.00;1.50;;;10.00;99.90;;;;;;4999454;28;20479;-50
2023/04/03 00:16:22;;;;;;;1.30;1.20;;;10.00;99.90;;;;;;5004064;28;20464;-48
2023/04/03 00:18:51;;;;;;;1.30;1.20;;;10.00;99.90;;;;;;4998097;28;20867;-48
2023/04/03 00:21:19;;;;;;;1.40;1.27;;;10.00;99.90;;;;;;5008692;28;20997;-48
2023/04/03 00:23:48;;;;;;;1.77;1.67;;;10.00;99.90;;;;;;5006810;28;20470;-47
2023/04/03 00:26:16;;;;;;;1.30;1.20;;;10.00;99.90;;;;;;5006923;28;20465;-49
2023/04/03 00:28:45;;;;;;;1.53;1.37;;;10.00;99.90;;;;;;5001451;28;20708;-47
2023/04/03 00:31:16;;;;;;;1.50;1.40;;;10.00;99.90;;;;;;5004895;28;20472;-48
2023/04/03 00:33:46;;;;;;;1.90;1.80;;;10.00;99.90;;;;;;5007672;28;20864;-48
2023/04/03 00:36:15;;;;;;;1.70;1.60;;;10.00;99.90;;;;;;5007214;28;20453;-48
2023/04/03 00:38:43;;;;;;;1.17;1.07;;;10.00;99.90;;;;;;5000990;28;20577;-49
2023/04/03 00:41:12;;;;;;;0.93;0.90;;;10.00;99.90;;;;;;5019643;28;20472;-48
2023/04/03 00:43:41;;;;;;;1.10;1.00;;;10.00;99.90;;;;;;5010503;28;20462;-48
2023/04/03 00:46:10;;;;;;;1.50;1.20;;;10.00;99.90;;;;;;5006644;28;20445;-49
2023/04/03 00:48:42;;;;;;;1.43;1.33;;;10.00;99.90;;;;;;5018054;28;20446;-48
2023/04/03 00:51:15;;;;;;;1.53;1.43;;;10.00;99.90;;;;;;5013784;28;20445;-49
2023/04/03 00:53:47;;;;;;;1.40;1.30;;;10.00;99.90;;;;;;5005048;28;20473;-48
2023/04/03 00:56:21;;;;;;;1.83;1.70;;;9.90;99.90;;;;;;5004952;28;20962;-50
2023/04/03 00:58:52;;;;;;;1.40;1.30;;;10.00;99.90;;;;;;5007888;28;20465;-48
2023/04/03 01:01:24;;;;;;;1.10;1.10;;;10.00;99.90;;;;;;5007268;28;20855;-49
2023/04/03 01:03:53;;;;;;;1.83;1.40;;;10.00;99.90;;;;;;5008567;28;20548;-46
2023/04/03 01:06:30;;;;;;;2.13;1.37;;;9.90;99.90;;;;;;5004775;28;20441;-47
2023/04/03 01:09:06;;;;;;;1.33;1.23;;;9.90;99.90;;;;;;5006770;28;20469;-50
2023/04/03 01:11:34;;;;;;;2.00;1.70;;;9.90;99.90;;;;;;5007675;28;20472;-48
2023/04/03 01:14:05;;;;;;;1.30;1.20;;;9.90;99.90;;;;;;5014810;28;20852;-48
2023/04/03 01:16:34;;;;;;;1.40;1.30;;;9.90;99.90;;;;;;5006286;28;20528;-48
2023/04/03 01:19:07;;;;;;;1.30;1.20;;;9.90;99.90;;;;;;5004925;28;20437;-49
2023/04/03 01:21:59;;;;;;;1.37;1.27;;;9.90;99.90;;;;;;5011348;28;20812;-48
2023/04/03 01:24:35;;;;;;;1.37;1.27;;;9.90;99.90;;;;;;5023259;28;20469;-48
2023/04/03 01:27:10;;;;;;;1.67;1.30;;;9.90;99.90;;;;;;5025182;28;20469;-49
2023/04/03 01:29:39;;;;;;;1.83;1.73;;;9.90;99.90;;;;;;5024139;28;20556;-49
2023/04/03 01:32:10;;;;;;;1.20;1.10;;;9.90;99.90;;;;;;5009413;28;21087;-48
2023/04/03 01:34:38;;;;;;;1.40;1.10;;;9.90;99.90;;;;;;5004694;28;20802;-48
2023/04/03 01:37:07;;;;;;;1.83;1.50;;;9.90;99.90;;;;;;5009205;28;20804;-49
2023/04/03 01:39:36;;;;;;;1.20;1.03;;;9.90;99.90;;;;;;5009036;28;20477;-48
2023/04/03 01:42:05;;;;;;;1.53;1.43;;;9.90;99.90;;;;;;5009490;28;20560;-47
2023/04/03 01:44:39;;;;;;;1.40;1.30;;;9.90;99.90;;;;;;5006998;28;20469;-48
2023/04/03 01:47:09;;;;;;;1.30;1.20;;;9.80;99.90;;;;;;5003354;28;20982;-48
2023/04/03 01:49:39;;;;;;;1.30;1.20;;;9.90;99.90;;;;;;5002689;28;20488;-49
2023/04/03 01:52:08;;;;;;;1.67;1.57;;;9.80;99.90;;;;;;5006644;28;20538;-48
2023/04/03 01:54:38;;;;;;;2.00;1.80;;;9.80;99.90;;;;;;5004368;28;20543;-46
2023/04/03 01:57:06;;;;;;;1.33;1.13;;;9.80;99.90;;;;;;5001368;28;20441;-48
2023/04/03 01:59:36;;;;;;;1.20;1.03;;;9.80;99.90;;;;;;5025018;28;21093;-48
2023/04/03 02:02:05;;;;;;;1.67;1.47;;;9.80;99.90;;;;;;5019233;28;20604;-49
2023/04/03 02:04:35;;;;;;;1.37;1.27;;;9.80;99.90;;;;;;5003961;28;20488;-47
2023/04/03 02:07:03;;;;;;;1.30;1.07;;;9.80;99.90;;;;;;5005577;28;20855;-48
2023/04/03 02:09:32;;;;;;;1.13;1.10;;;9.80;99.90;;;;;;5005913;28;20472;-48
2023/04/03 02:12:01;;;;;;;1.90;1.80;;;9.80;99.90;;;;;;5008517;28;20487;-49
2023/04/03 02:14:31;;;;;;;1.40;1.30;;;9.80;99.90;;;;;;5001279;28;20473;-48
2023/04/03 02:17:04;;;;;;;1.30;1.20;;;9.80;99.90;;;;;;5019117;28;20452;-49
2023/04/03 02:19:34;;;;;;;1.70;1.60;;;9.80;99.90;;;;;;5013231;28;20501;-48
2023/04/03 02:22:03;;;;;;;1.73;1.60;;;9.80;99.90;;;;;;5005638;28;20495;-48
2023/04/03 02:24:32;;;;;;;1.43;1.30;;;9.80;99.90;;;;;;5008046;28;20485;-48
2023/04/03 02:27:01;;;;;;;1.20;1.10;;;9.80;99.90;;;;;;5004198;28;20452;-48
2023/04/03 02:29:30;;;;;;;1.30;1.20;;;9.80;99.90;;;;;;5023517;28;20475;-48
2023/04/03 02:31:58;;;;;;;1.67;1.50;;;9.80;99.90;;;;;;5008838;28;20469;-49
2023/04/03 02:34:27;;;;;;;1.37;1.27;;;9.80;99.90;;;;;;5010346;28;20814;-48
2023/04/03 02:36:58;;;;;;;3.13;1.70;;;9.80;99.90;;;;;;5009967;28;20795;-47
2023/04/03 02:39:27;;;;;;;1.70;1.60;;;9.80;99.90;;;;;;5011808;28;20509;-48
2023/04/03 02:41:57;;;;;;;1.43;1.33;;;9.80;99.90;;;;;;5009509;28;20510;-48
2023/04/03 02:44:26;;;;;;;1.43;1.33;;;9.80;99.90;;;;;;5007806;28;20509;-48
2023/04/03 02:46:55;;;;;;;1.40;1.30;;;9.80;99.90;;;;;;5024005;28;20536;-47
2023/04/03 02:49:24;;;;;;;1.60;1.30;;;9.80;99.90;;;;;;5000222;28;20480;-49
2023/04/03 02:51:53;;;;;;;1.80;1.43;;;9.70;99.90;;;;;;5007970;28;20473;-47
2023/04/03 02:54:24;;;;;;;1.33;1.23;;;9.70;99.90;;;;;;5009498;28;20872;-48
2023/04/03 02:56:55;;;;;;;1.50;1.40;;;9.70;99.90;;;;;;5012000;28;20444;-46
2023/04/03 02:59:24;;;;;;;1.60;1.50;;;9.70;99.90;;;;;;5007124;28;20985;-48
2023/04/03 03:01:52;;;;;;;2.03;1.30;;;9.70;99.90;;;;;;5004682;28;20503;-49
2023/04/03 03:04:21;;;;;;;1.83;1.60;;;9.70;99.90;;;;;;5007165;28;20503;-48
2023/04/03 03:06:50;;;;;;;1.13;1.13;;;9.70;99.90;;;;;;5016919;28;20534;-47
2023/04/03 03:09:19;;;;;;;1.60;1.50;;;9.70;99.90;;;;;;5007337;28;20484;-46
2023/04/03 03:11:49;;;;;;;2.60;1.40;;;9.70;99.90;;;;;;5002488;28;20469;-48
2023/04/03 03:14:17;;;;;;;2.83;1.47;;;9.70;99.90;;;;;;5007280;28;20471;-48
2023/04/03 03:16:46;;;;;;;2.00;1.90;;;9.70;99.90;;;;;;5001764;28;20441;-49
2023/04/03 03:19:16;;;;;;;2.47;1.93;;;9.70;99.90;;;;;;5008793;28;20476;-48
2023/04/03 03:21:45;;;;;;;1.53;1.10;;;9.70;99.90;;;;;;5003759;28;20477;-49
2023/04/03 03:24:15;;;;;;;1.50;1.30;;;9.70;99.90;;;;;;5007892;28;20432;-48
2023/04/03 03:26:44;;;;;;;1.60;1.50;;;9.70;99.90;;;;;;5003400;28;20454;-48
2023/04/03 03:29:14;;;;;;;2.97;1.73;;;9.70;99.90;;;;;;5003124;28;20480;-48
2023/04/03 03:31:44;;;;;;;1.60;1.50;;;9.70;99.90;;;;;;5015298;28;20599;-48
2023/04/03 03:34:12;;;;;;;1.60;1.50;;;9.60;99.90;;;;;;5008289;28;20500;-48
2023/04/03 03:36:41;;;;;;;1.37;1.27;;;9.60;99.90;;;;;;5004396;28;20459;-49
2023/04/03 03:39:11;;;;;;;2.33;1.30;;;9.60;99.90;;;;;;5002229;28;20481;-48
2023/04/03 03:41:39;;;;;;;1.40;1.30;;;9.60;99.90;;;;;;5002471;28;20564;-49
2023/04/03 03:44:09;;;;;;;1.03;1.00;;;9.60;99.90;;;;;;5009278;28;20441;-48
2023/04/03 03:46:39;;;;;;;1.50;1.40;;;9.60;99.90;;;;;;5003046;28;20453;-48
2023/04/03 03:49:08;;;;;;;1.57;1.47;;;9.60;99.90;;;;;;5018921;28;20464;-48
2023/04/03 03:51:38;;;;;;;2.23;1.70;;;9.60;99.90;;;;;;5004461;28;20468;-48
2023/04/03 03:54:08;;;;;;;1.70;1.43;;;9.60;99.90;;;;;;5017994;28;20446;-47
2023/04/03 03:56:37;;;;;;;3.00;2.30;;;9.60;99.90;;;;;;5000748;28;20993;-50
2023/04/03 03:59:06;;;;;;;2.40;2.20;;;9.60;99.90;;;;;;5022652;28;20524;-47
2023/04/03 04:01:35;;;;;;;1.73;1.37;;;9.60;99.90;;;;;;5003256;28;21115;-49
2023/04/03 04:04:06;;;;;;;1.53;1.43;;;9.60;99.90;;;;;;5000000;28;20903;-48
2023/04/03 04:06:34;;;;;;;2.40;1.67;;;9.60;99.90;;;;;;5005575;28;20471;-47
2023/04/03 04:09:06;;;;;;;1.43;1.33;;;9.60;99.90;;;;;;5003500;28;20506;-49
2023/04/03 04:11:34;;;;;;;1.93;1.80;;;9.60;99.90;;;;;;4999560;28;20923;-49
2023/04/03 04:14:04;;;;;;;2.20;1.73;;;9.50;99.90;;;;;;5022898;28;20489;-48
2023/04/03 04:16:32;;;;;;;1.90;1.50;;;9.50;99.90;;;;;;5006537;28;20945;-48
2023/04/03 04:19:08;;;;;;;1.97;1.60;;;9.50;99.90;;;;;;5002794;28;20445;-49
2023/04/03 04:21:39;;;;;;;1.60;1.50;;;9.50;99.90;;;;;;5001143;28;20468;-48
2023/04/03 04:24:09;;;;;;;3.00;1.20;;;9.50;99.90;;;;;;5000457;28;20457;-48
2023/04/03 04:26:39;;;;;;;1.57;1.47;;;9.50;99.90;;;;;;5004715;28;20449;-48
2023/04/03 04:29:11;;;;;;;1.73;1.63;;;9.50;99.90;;;;;;5007049;28;20982;-49
2023/04/03 04:31:39;;;;;;;1.30;1.20;;;9.50;99.90;;;;;;5007310;28;20472;-49
2023/04/03 04:34:10;;;;;;;1.37;1.20;;;9.50;99.90;;;;;;5007233;28;20433;-49
2023/04/03 04:36:39;;;;;;;2.30;1.87;;;9.50;99.90;;;;;;5008962;28;20440;-49
2023/04/03 04:39:08;;;;;;;1.53;1.43;;;9.50;99.90;;;;;;5004940;28;20462;-48
2023/04/03 04:41:36;;;;;;;1.30;1.20;;;9.50;99.90;;;;;;5000552;28;20485;-48
2023/04/03 04:44:06;;;;;;;1.50;1.40;;;9.50;99.90;;;;;;5010818;28;20481;-48
2023/04/03 04:46:36;;;;;;;1.77;1.33;;;9.50;99.90;;;;;;5010182;28;20878;-48
2023/04/03 04:49:06;;;;;;;3.57;1.50;;;9.50;99.90;;;;;;5013743;28;21051;-49
2023/04/03 04:51:36;;;;;;;1.53;1.40;;;9.50;99.90;;;;;;5007740;28;20492;-49
2023/04/03 04:54:22;;;;;;;1.60;1.50;;;9.50;99.90;;;;;;5017140;28;20812;-49
2023/04/03 04:56:51;;;;;;;1.87;1.60;;;9.50;99.90;;;;;;5009268;28;20452;-49
2023/04/03 04:59:20;;;;;;;2.00;1.80;;;9.50;99.90;;;;;;5008503;28;20436;-47
2023/04/03 05:01:51;;;;;;;2.17;1.97;;;9.50;99.90;;;;;;5006039;28;20522;-48
2023/04/03 05:04:19;;;;;;;1.57;1.47;;;9.50;99.90;;;;;;5008633;28;20475;-48
2023/04/03 05:06:54;;;;;;;2.47;2.27;;;9.50;99.90;;;;;;5008639;28;20991;-49
2023/04/03 05:09:26;;;;;;;1.27;1.17;;;9.40;99.90;;;;;;5009075;28;20837;-49
2023/04/03 05:11:56;;;;;;;1.73;1.63;;;9.40;99.90;;;;;;5006661;28;20547;-48
2023/04/03 05:14:28;;;;;;;1.90;1.80;;;9.40;99.90;;;;;;5005852;28;20804;-48
2023/04/03 05:17:02;;;;;;;1.73;1.50;;;9.40;99.90;;;;;;5008229;28;20438;-46
2023/04/03 05:19:34;;;;;;;1.40;1.20;;;9.40;99.90;;;;;;5008926;28;20473;-48
2023/04/03 05:22:05;;;;;;;1.50;1.40;;;9.40;99.90;;;;;;5019612;28;20469;-47
2023/04/03 05:24:35;;;;;;;2.23;1.90;;;9.40;99.90;;;;;;5002656;28;20487;-47
2023/04/03 05:27:05;;;;;;;1.53;1.43;;;9.40;99.90;;;;;;5004243;28;20960;-49
2023/04/03 05:29:37;;;;;;;1.90;1.80;;;9.40;99.90;;;;;;5007251;28;20505;-49
2023/04/03 05:32:06;;;;;;;2.60;1.90;;;9.40;99.90;;;;;;5004645;28;20472;-48
2023/04/03 05:34:35;;;;;;;1.57;1.47;;;9.40;99.90;;;;;;5016090;28;20541;-48
2023/04/03 05:37:06;;;;;;;1.80;1.70;;;9.40;99.90;;;;;;5007292;28;20502;-47
2023/04/03 05:39:36;;;;;;;1.63;1.53;;;9.40;99.90;;;;;;5005032;28;20472;-49
2023/04/03 05:42:06;;;;;;;1.73;1.63;;;9.40;99.90;;;;;;5008278;28;20512;-48
2023/04/03 05:44:36;;;;;;;2.17;1.60;;;9.40;99.90;;;;;;5010827;28;20821;-48
2023/04/03 05:47:05;;;;;;;1.60;1.50;;;9.40;99.90;;;;;;5006576;28;20456;-49
2023/04/03 05:49:34;;;;;;;1.43;1.33;;;9.40;99.90;;;;;;5010526;28;20558;-47
2023/04/03 05:52:05;;;;;;;1.90;1.50;;;9.40;99.90;;;;;;5006849;28;20548;-47
2023/04/03 05:54:33;;;;;;;1.40;1.30;;;9.30;99.90;;;;;;5009511;28;20468;-48
2023/04/03 05:57:09;;;;;;;1.30;1.20;;;9.30;99.90;;;;;;4988611;28;21004;-50
2023/04/03 05:59:38;;;;;;;1.37;1.27;;;9.30;99.90;;;;;;5008611;28;21045;-48
2023/04/03 06:02:08;;;;;;;1.47;1.30;;;9.30;99.90;;;;;;5008882;28;20818;-48
2023/04/03 06:04:37;;;;;;;1.63;1.53;;;9.30;99.90;;;;;;5007248;28;20469;-49
2023/04/03 06:07:08;;;;;;;1.67;1.57;;;9.30;99.90;;;;;;5021362;28;20418;-48
2023/04/03 06:09:37;;;;;;;2.30;1.23;;;9.30;99.90;;;;;;5003054;28;21003;-48
2023/04/03 06:12:05;;;;;;;1.63;1.53;;;9.30;99.90;;;;;;5010323;28;20561;-48
2023/04/03 06:14:34;;;;;;;1.50;1.40;;;9.30;99.90;;;;;;4997736;28;20445;-48
2023/04/03 06:17:04;;;;;;;1.67;1.37;;;9.30;99.90;;;;;;5005396;28;20488;-47
2023/04/03 06:19:34;;;;;;;1.60;1.50;;;9.30;99.90;;;;;;5002837;28;21061;-49
2023/04/03 06:22:02;;;;;;;1.73;1.63;;;9.30;99.90;;;;;;5007835;28;20444;-49
2023/04/03 06:24:32;;;;;;;2.20;1.80;;;9.30;99.90;;;;;;5005998;28;21041;-47
2023/04/03 06:27:01;;;;;;;1.40;1.30;;;9.30;99.90;;;;;;5009504;28;20503;-46
2023/04/03 06:29:30;;;;;;;1.73;1.63;;;9.30;99.90;;;;;;5017599;28;20489;-47
2023/04/03 06:31:59;;;;;;;2.20;1.80;;;9.30;99.90;;;;;;5003333;28;20461;-47
2023/04/03 06:34:27;;;;;;;1.53;1.43;;;9.30;99.90;;;;;;5016404;28;21077;-52
2023/04/03 06:36:56;;;;;;;1.83;1.40;;;9.30;99.90;;;;;;5005304;28;20429;-47
2023/04/03 06:39:25;;;;;;;2.10;1.90;;;9.30;99.90;;;;;;5002936;28;20562;-50
2023/04/03 06:41:56;;;;;;;1.63;1.30;;;9.30;99.90;;;;;;5005216;28;20809;-48
2023/04/03 06:44:36;;;;;;;2.80;2.53;;;9.30;99.90;;;;;;5004780;28;20463;-47
2023/04/03 06:47:05;;;;;;;1.20;1.10;;;9.20;99.90;;;;;;5005937;28;20490;-48
2023/04/03 06:49:34;;;;;;;1.83;1.60;;;9.30;99.90;;;;;;4997157;28;20466;-48
2023/04/03 06:52:02;;;;;;;1.60;1.50;;;9.30;99.90;;;;;;5009202;28;20455;-49
2023/04/03 06:54:31;;;;;;;1.70;1.60;;;9.30;99.90;;;;;;5001729;28;20990;-48
2023/04/03 06:57:01;;;;;;;1.20;1.10;;;9.30;99.90;;;;;;5009573;28;20457;-49
2023/04/03 06:59:30;;;;;;;1.40;1.30;;;9.30;99.90;;;;;;5002162;28;20471;-47
2023/04/03 07:01:59;;;;;;;1.40;1.30;;;9.30;99.90;;;;;;5009073;28;20997;-49
2023/04/03 07:04:28;;;;;;;1.77;1.40;;;9.30;99.90;;;;;;5017603;28;20489;-47
2023/04/03 07:06:57;;;;;;;1.87;1.67;;;9.30;99.90;;;;;;5019514;28;20442;-46
2023/04/03 07:09:26;;;;;;;2.13;1.70;;;9.30;99.90;;;;;;5005065;28;20469;-48
2023/04/03 07:11:54;;;;;;;1.20;1.10;;;9.30;99.90;;;;;;5006952;28;20997;-47
2023/04/03 07:14:24;;;;;;;1.47;1.37;;;9.30;99.90;;;;;;5003482;28;20472;-48
2023/04/03 07:16:54;;;;;;;1.60;1.20;;;9.30;99.90;;;;;;5007808;28;20460;-48
2023/04/03 07:19:24;;;;;;;1.40;1.13;;;9.30;99.90;;;;;;5007246;28;20476;-48
2023/04/03 07:21:53;;;;;;;2.30;1.30;;;9.30;99.90;;;;;;5006780;28;20459;-48
2023/04/03 07:24:21;;;;;;;1.50;1.40;;;9.30;99.90;;;;;;5006546;28;20441;-48
2023/04/03 07:26:51;;;;;;;1.17;1.07;;;9.30;99.90;;;;;;4985629;28;20445;-47
2023/04/03 07:29:21;;;;;;;1.43;1.20;;;9.30;99.90;;;;;;5007420;28;20465;-49
2023/04/03 07:31:52;;;;;;;2.30;1.50;;;9.30;99.90;;;;;;5004645;28;20550;-48
2023/04/03 07:34:21;;;;;;;1.67;1.10;;;9.40;99.90;;;;;;5008743;28;20504;-49
2023/04/03 07:36:50;;;;;;;1.67;1.13;;;9.30;99.90;;;;;;5006083;28;20444;-47
2023/04/03 07:39:19;;;;;;;1.50;1.40;;;9.40;99.90;;;;;;5007759;28;20461;-48
2023/04/03 07:41:48;;;;;;;1.30;1.20;;;9.40;99.90;;;;;;5009163;28;20452;-47
2023/04/03 07:44:18;;;;;;;1.40;1.30;;;9.30;99.90;;;;;;4995860;28;20445;-47
2023/04/03 07:46:48;;;;;;;1.37;1.13;;;9.40;99.90;;;;;;5008823;28;20449;-47
2023/04/03 07:49:19;;;;;;;1.80;1.20;;;9.30;99.90;;;;;;5008281;28;20470;-47
2023/04/03 07:51:48;;;;;;;1.57;1.43;;;9.30;99.90;;;;;;5005314;28;20846;-48
2023/04/03 07:54:17;;;;;;;2.20;1.27;;;9.40;99.90;;;;;;5007104;28;20810;-48
2023/04/03 07:56:47;;;;;;;3.23;1.60;;;9.40;99.90;;;;;;5002337;28;20792;-47
2023/04/03 07:59:16;;;;;;;1.83;1.13;;;9.40;99.90;;;;;;5006963;28;20448;-47
2023/04/03 08:01:45;;;;;;;1.47;1.37;;;9.40;99.90;;;;;;5004520;28;20869;-47
2023/04/03 08:04:14;;;;;;;1.50;1.40;;;9.40;99.90;;;;;;5003761;28;21059;-49
2023/04/03 08:06:45;;;;;;;1.30;1.17;;;9.40;99.90;;;;;;4996997;28;20449;-46
2023/04/03 08:09:16;;;;;;;1.40;1.13;;;9.40;99.90;;;;;;5002668;28;20734;-48
2023/04/03 08:11:45;;;;;;;0.93;0.93;;;9.40;99.90;;;;;;5003596;28;20505;-47
2023/04/03 08:14:18;;;;;;;1.27;1.10;;;9.40;99.90;;;;;;5010822;28;20433;-48
2023/04/03 08:16:48;;;;;;;1.43;1.20;;;9.40;99.90;;;;;;5004887;28;20449;-48
2023/04/03 08:19:17;;;;;;;1.13;1.00;;;9.50;99.90;;;;;;5007522;28;20478;-48
2023/04/03 08:21:56;;;;;;;2.50;1.40;;;9.50;99.90;;;;;;5007433;28;20455;-48
2023/04/03 08:24:25;;;;;;;1.40;1.30;;;9.50;99.90;;;;;;5008616;28;20941;-47
2023/04/03 08:26:54;;;;;;;1.63;1.40;;;9.50;99.90;;;;;;5006929;28;20557;-47
2023/04/03 08:29:23;;;;;;;1.40;1.30;;;9.50;99.90;;;;;;5007510;28;20999;-46
2023/04/03 08:31:52;;;;;;;1.40;1.20;;;9.50;99.90;;;;;;5004882;28;20469;-48
2023/04/03 08:34:25;;;;;;;1.80;1.70;;;9.50;99.90;;;;;;5005653;28;20452;-49
2023/04/03 08:36:56;;;;;;;1.30;1.20;;;9.50;99.90;;;;;;5005752;28;20441;-48
2023/04/03 08:39:25;;;;;;;1.47;1.30;;;9.50;99.90;;;;;;5008985;28;20503;-48
2023/04/03 08:41:58;;;;;;;1.27;1.20;;;9.50;99.90;;;;;;5006580;28;20996;-49
2023/04/03 08:44:36;;;;;;;3.10;1.60;;;9.50;99.90;;;;;;5010367;28;20454;-48
2023/04/03 08:47:20;;;;;;;1.87;1.53;;;9.50;99.90;;;;;;5010694;28;20798;-48
2023/04/03 08:49:54;;;;;;;1.20;1.10;;;9.50;99.90;;;;;;5008907;28;20515;-49
2023/04/03 08:52:35;;;;;;;2.10;1.50;;;9.50;99.90;;;;;;5006692;28;20526;-49
2023/04/03 08:55:14;;;;;;;1.40;1.30;;;9.50;99.90;;;;;;5004754;28;20475;-48
2023/04/03 08:57:46;;;;;;;3.43;1.40;;;9.60;99.90;;;;;;5025699;28;20438;-47
2023/04/03 09:00:20;;;;;;;1.20;1.10;;;9.60;99.90;;;;;;5012319;28;20497;-46
2023/04/03 09:02:51;;;;;;;1.60;1.40;;;9.50;99.90;;;;;;5009785;28;20437;-46
2023/04/03 09:05:27;;;;;;;1.47;1.20;;;9.50;99.90;;;;;;5013618;28;20510;-48
2023/04/03 09:08:02;;;;;;;1.30;1.17;;;9.50;99.90;;;;;;5006810;28;20499;-48
2023/04/03 09:10:34;;;;;;;2.03;1.30;;;9.60;99.90;;;;;;5019128;28;20486;-48
2023/04/03 09:13:12;;;;;;;1.40;1.10;;;9.60;99.90;;;;;;5023449;28;20443;-49
2023/04/03 09:15:41;;;;;;;1.37;1.27;;;9.60;99.90;;;;;;5010420;28;20476;-47
2023/04/03 09:18:18;;;;;;;1.67;1.37;;;9.60;99.90;;;;;;5007176;28;20448;-49
2023/04/03 09:20:53;;;;;;;1.20;1.10;;;9.60;99.90;;;;;;5009436;28;20495;-46
2023/04/03 09:23:30;;;;;;;1.30;1.20;;;9.60;99.90;;;;;;5007654;28;20466;-50
2023/04/03 09:26:06;;;;;;;1.40;1.20;;;9.60;99.90;;;;;;5006748;28;20820;-48
2023/04/03 09:28:39;;;;;;;1.13;1.03;;;9.60;99.90;;;;;;5008638;28;20453;-47
2023/04/03 09:31:22;;;;;;;1.67;1.30;;;9.60;99.90;;;;;;5022640;28;20468;-49
2023/04/03 09:33:56;;;;;;;1.03;0.97;;;9.60;99.90;;;;;;5006355;28;20455;-47
2023/04/03 09:36:43;;;;;;;1.50;1.30;;;9.60;99.90;;;;;;5011690;28;20447;-47
2023/04/03 09:39:16;;;;;;;1.63;1.20;;;9.60;99.90;;;;;;5019749;28;20439;-48
2023/04/03 09:41:59;;;;;;;2.90;1.70;;;9.60;99.90;;;;;;5020033;28;20824;-49
2023/04/03 09:44:31;;;;;;;1.37;1.23;;;9.60;99.90;;;;;;5003814;28;20892;-47
2023/04/03 09:47:18;;;;;;;1.20;1.00;;;9.60;99.90;;;;;;5007428;28;20449;-49
2023/04/03 09:49:47;;;;;;;1.47;1.30;;;9.60;99.90;;;;;;5019084;28;20521;-46
2023/04/03 09:52:21;;;;;;;2.37;1.30;;;9.50;99.90;;;;;;5002078;28;20473;-49
2023/04/03 09:54:51;;;;;;;1.50;1.40;;;9.60;99.90;;;;;;5009657;28;20481;-48
2023/04/03 09:57:20;;;;;;;1.50;0.97;;;9.60;99.90;;;;;;4995630;28;20498;-47
2023/04/03 09:59:59;;;;;;;1.20;1.10;;;9.60;99.90;;;;;;5005914;28;20518;-49
2023/04/03 10:02:37;;;;;;;2.50;1.20;;;9.50;99.90;;;;;;5007545;28;20464;-49
2023/04/03 10:05:30;;;;;;;1.77;1.13;;;9.50;99.90;;;;;;5007329;28;20808;-48
2023/04/03 10:08:12;;;;;;;2.33;1.37;;;9.50;99.90;;;;;;5008167;28;21012;-47
2023/04/03 10:10:42;;;;;;;2.43;1.07;;;9.50;99.90;;;;;;4998486;28;20462;-47
2023/04/03 10:13:13;;;;;;;1.23;1.13;;;9.50;99.90;;;;;;5008700;28;20461;-48
2023/04/03 10:15:56;;;;;;;1.40;1.30;;;9.50;99.90;;;;;;5007945;28;20477;-48
2023/04/03 10:18:41;;;;;;;0.90;0.77;;;9.50;99.90;;;;;;5008454;28;20976;-48
2023/04/03 10:21:16;;;;;;;2.80;1.20;;;9.50;99.90;;;;;;5007817;28;20465;-48
2023/04/03 10:24:02;;;;;;;1.60;1.07;;;9.50;99.90;;;;;;5007810;28;20521;-48
2023/04/03 10:26:40;;;;;;;1.30;1.00;;;9.50;99.90;;;;;;5016725;28;20961;-48
2023/04/03 10:29:22;;;;;;;1.73;0.80;;;9.50;99.90;;;;;;5018236;28;20495;-48
2023/04/03 10:32:00;;;;;;;1.20;0.83;;;9.50;99.90;;;;;;5006367;28;20464;-46
2023/04/03 10:34:32;;;;;;;1.20;1.10;;;9.50;99.90;;;;;;5000928;28;20826;-49
2023/04/03 10:37:12;;;;;;;1.13;1.00;;;9.50;99.90;;;;;;5001690;28;20428;-48
2023/04/03 10:39:47;;;;;;;2.20;1.00;;;9.50;99.90;;;;;;5020417;28;20484;-46
2023/04/03 10:42:25;;;;;;;1.33;1.20;;;9.50;99.90;;;;;;5006555;28;20561;-48
2023/04/03 10:45:15;;;;;;;1.30;1.20;;;9.50;99.90;;;;;;5001582;28;20462;-48
2023/04/03 10:47:54;;;;;;;1.30;1.20;;;9.50;99.90;;;;;;5005106;28;20442;-47
2023/04/03 10:50:47;;;;;;;0.93;0.90;;;9.50;99.90;;;;;;5010224;28;20466;-48
2023/04/03 10:53:26;;;;;;;2.57;1.23;;;9.50;99.90;;;;;;5004491;28;20837;-47
2023/04/03 10:56:02;;;;;;;1.10;1.00;;;9.40;99.90;;;;;;5008855;28;20454;-47
2023/04/03 10:58:36;;;;;;;1.23;1.07;;;9.50;99.90;;;;;;5022873;28;20425;-47
2023/04/03 11:01:11;;;;;;;1.63;1.00;;;9.40;99.90;;;;;;5005956;28;20985;-48
2023/04/03 11:03:42;;;;;;;1.83;1.20;;;9.50;99.90;;;;;;5012734;28;20473;-47
2023/04/03 11:06:14;;;;;;;1.87;1.00;;;9.50;99.90;;;;;;5019407;28;20436;-48
2023/04/03 11:08:50;;;;;;;3.07;1.40;;;9.50;99.90;;;;;;5002419;28;20474;-49
2023/04/03 11:11:22;;;;;;;1.30;0.90;;;9.40;99.90;;;;;;5008996;28;20552;-49
2023/04/03 11:13:59;;;;;;;1.20;1.10;;;9.40;99.90;;;;;;5004408;28;20477;-48
2023/04/03 11:16:30;;;;;;;3.77;1.50;;;9.40;99.90;;;;;;5005454;28;20491;-48
2023/04/03 11:19:21;;;;;;;2.10;1.20;;;9.40;99.90;;;;;;5016319;28;20448;-48
2023/04/03 11:21:58;;;;;;;1.70;1.60;;;9.50;99.90;;;;;;5009587;28;21001;-48
2023/04/03 11:24:29;;;;;;;3.50;1.13;;;9.50;99.90;;;;;;5005252;28;20484;-48
2023/04/03 11:27:01;;;;;;;1.20;1.00;;;9.40;99.90;;;;;;5001572;28;20449;-49
2023/04/03 11:29:36;;;;;;;0.70;0.70;;;9.50;99.90;;;;;;5008276;28;20461;-47
2023/04/03 11:32:28;;;;;;;0.93;0.80;;;9.40;99.90;;;;;;5008736;28;20880;-49
2023/04/03 11:34:59;;;;;;;3.07;0.87;;;9.40;99.90;;;;;;5021177;28;21013;-48
2023/04/03 11:37:35;;;;;;;2.90;1.20;;;9.50;99.90;;;;;;5005054;28;20505;-48
2023/04/03 11:40:09;;;;;;;1.13;1.03;;;9.50;99.90;;;;;;5004286;28;20473;-48
2023/04/03 11:42:39;;;;;;;1.57;1.27;;;9.50;99.90;;;;;;5025629;28;20464;-47
2023/04/03 11:45:32;;;;;;;1.57;1.00;;;9.50;99.90;;;;;;5006144;28;20467;-47
2023/04/03 11:48:04;;;;;;;0.83;0.67;;;9.40;99.90;;;;;;5004678;28;20452;-48
2023/04/03 11:50:52;;;;;;;1.67;1.10;;;9.40;99.90;;;;;;5010734;28;21019;-49
2023/04/03 11:53:42;;;;;;;0.90;0.80;;;9.40;99.90;;;;;;5011373;28;20490;-48
2023/04/03 11:56:33;;;;;;;1.03;0.90;;;9.40;99.90;;;;;;5003954;28;20472;-47
2023/04/03 11:59:24;;;;;;;1.90;1.20;;;9.40;99.90;;;;;;5007890;28;20437;-47
2023/04/03 12:01:56;;;;;;;1.07;0.87;;;9.50;99.90;;;;;;5018039;28;20481;-48
2023/04/03 12:04:27;;;;;;;2.23;1.00;;;9.50;99.90;;;;;;4988781;28;20881;-47
2023/04/03 12:07:17;;;;;;;1.43;0.80;;;9.40;99.90;;;;;;5005456;28;20455;-48
2023/04/03 12:10:17;;;;;;;1.10;1.00;;;9.40;99.90;;;;;;5010601;28;20479;-47
2023/04/03 12:13:02;;;;;;;1.30;0.90;;;9.50;99.90;;;;;;5009758;28;20534;-47
2023/04/03 12:15:53;;;;;;;1.33;1.10;;;9.50;99.90;;;;;;5017305;28;21228;-48
2023/04/03 12:18:55;;;;;;;0.90;0.80;;;9.50;99.90;;;;;;5008552;28;20442;-49
2023/04/03 12:21:47;;;;;;;2.30;1.43;;;9.50;99.90;;;;;;5009920;28;20905;-49
2023/04/03 12:24:28;;;;;;;2.73;1.00;;;9.50;99.90;;;;;;5012322;28;20954;-47
2023/04/03 12:27:14;;;;;;;1.40;1.23;;;9.50;99.90;;;;;;5011210;28;20446;-48
2023/04/03 12:29:51;;;;;;;1.30;1.00;;;9.50;99.90;;;;;;5016245;28;20553;-46
2023/04/03 12:32:45;;;;;;;1.67;0.97;;;9.50;99.90;;;;;;5013179;28;20549;-49
2023/04/03 12:35:24;;;;;;;2.03;1.10;;;9.50;99.90;;;;;;5008470;28;20516;-47
2023/04/03 12:38:30;;;;;;;0.97;0.87;;;9.50;99.90;;;;;;5004615;28;20977;-48
2023/04/03 12:41:17;;;;;;;1.20;1.00;;;9.50;99.90;;;;;;5005787;28;20480;-49
2023/04/03 12:44:02;;;;;;;1.63;1.00;;;9.50;99.90;;;;;;5013378;28;20454;-48
2023/04/03 12:46:40;;;;;;;0.97;0.87;;;9.50;99.90;;;;;;5022544;28;20457;-49
2023/04/03 12:49:27;;;;;;;2.27;0.90;;;9.50;99.90;;;;;;5005560;28;21088;-49
2023/04/03 12:51:56;;;;;;;1.40;0.77;;;9.50;99.90;;;;;;5005357;28;21047;-47
2023/04/03 12:54:32;;;;;;;1.37;1.00;;;9.50;99.90;;;;;;5002825;28;20489;-47
2023/04/03 12:57:13;;;;;;;0.60;0.60;;;9.50;99.90;;;;;;5000732;28;20444;-48
2023/04/03 12:59:43;;;;;;;2.20;0.90;;;9.50;99.90;;;;;;5006297;28;20457;-49
2023/04/03 13:02:23;;;;;;;1.27;1.17;;;9.50;99.90;;;;;;5009396;28;20642;-48
2023/04/03 13:04:53;;;;;;;2.90;1.10;;;9.50;99.90;;;;;;5006974;28;20460;-49
2023/04/03 13:07:25;;;;;;;1.00;0.87;;;9.50;99.90;;;;;;5009723;28;20493;-48
2023/04/03 13:10:00;;;;;;;1.10;0.90;;;9.50;99.90;;;;;;5003165;28;20475;-49
2023/04/03 13:12:31;;;;;;;0.97;0.70;;;9.50;99.90;;;;;;5014167;28;20457;-48
2023/04/03 13:15:04;;;;;;;0.70;0.70;;;9.50;99.90;;;;;;5010327;28;20504;-48
2023/04/03 13:17:33;;;;;;;0.73;0.50;;;9.60;99.90;;;;;;5008225;28;20480;-49
2023/04/03 13:20:15;;;;;;;0.70;0.60;;;9.60;99.90;;;;;;5002053;28;20487;-47
2023/04/03 13:22:51;;;;;;;0.93;0.73;;;9.60;99.90;;;;;;5011476;28;20974;-46
2023/04/03 13:25:22;;;;;;;1.33;0.70;;;9.60;99.90;;;;;;5008508;28;20938;-47